sensor_id;sensor_type;location;lat;lon;timestamp;P1;durP1;ratioP1;P2;durP2;ratioP2
26040;SDS011;13816;53.628;9.950;2022-12-28T00:00:31;12.73;;;5.47;;
26040;SDS011;13816;53.628;9.950;2022-12-28T00:02:57;15.20;;;5.93;;
26040;SDS011;13816;53.628;9.950;2022-12-28T00:05:23;8.37;;;4.50;;
26040;SDS011;13816;53.628;9.950;2022-12-28T00:07:50;14.63;;;4.47;;
26040;SDS011;13816;53.628;9.950;2022-12-28T00:10:16;15.17;;;4.57;;
26040;SDS011;13816;53.628;9.950;2022-12-28T00:12:42;9.77;;;4.40;;
26040;SDS011;13816;53.628;9.950;2022-12-28T00:15:08;10.17;;;4.07;;
26040;SDS011;13816;53.628;9.950;2022-12-28T00:17:34;7.17;;;4.00;;
26040;SDS011;13816;53.628;9.950;2022-12-28T00:20:00;7.53;;;3.90;;
26040;SDS011;13816;53.628;9.950;2022-12-28T00:22:27;7.53;;;3.80;;
26040;SDS011;13816;53.628;9.950;2022-12-28T00:24:53;9.03;;;3.60;;
26040;SDS011;13816;53.628;9.950;2022-12-28T00:27:19;13.60;;;4.30;;
26040;SDS011;13816;53.628;9.950;2022-12-28T00:29:45;8.27;;;3.80;;
26040;SDS011;13816;53.628;9.950;2022-12-28T00:32:11;7.30;;;3.27;;
26040;SDS011;13816;53.628;9.950;2022-12-28T00:34:37;9.77;;;3.70;;
26040;SDS011;13816;53.628;9.950;2022-12-28T00:37:06;10.73;;;3.23;;
26040;SDS011;13816;53.628;9.950;2022-12-28T00:39:34;11.40;;;3.37;;
26040;SDS011;13816;53.628;9.950;2022-12-28T00:42:00;7.13;;;3.10;;
26040;SDS011;13816;53.628;9.950;2022-12-28T00:44:28;12.53;;;2.70;;
26040;SDS011;13816;53.628;9.950;2022-12-28T00:46:54;15.37;;;3.43;;
26040;SDS011;13816;53.628;9.950;2022-12-28T00:49:20;12.00;;;3.20;;
26040;SDS011;13816;53.628;9.950;2022-12-28T00:51:47;4.33;;;2.53;;
26040;SDS011;13816;53.628;9.950;2022-12-28T00:54:13;7.33;;;2.80;;
26040;SDS011;13816;53.628;9.950;2022-12-28T00:56:42;9.13;;;3.03;;
26040;SDS011;13816;53.628;9.950;2022-12-28T00:59:08;6.67;;;2.87;;
26040;SDS011;13816;53.628;9.950;2022-12-28T01:01:34;3.73;;;2.70;;
26040;SDS011;13816;53.628;9.950;2022-12-28T01:04:00;8.30;;;2.83;;
26040;SDS011;13816;53.628;9.950;2022-12-28T01:06:27;12.00;;;2.60;;
26040;SDS011;13816;53.628;9.950;2022-12-28T01:08:53;5.73;;;2.30;;
26040;SDS011;13816;53.628;9.950;2022-12-28T01:11:21;5.70;;;2.03;;
26040;SDS011;13816;53.628;9.950;2022-12-28T01:13:47;4.40;;;2.00;;
26040;SDS011;13816;53.628;9.950;2022-12-28T01:16:20;8.83;;;2.63;;
26040;SDS011;13816;53.628;9.950;2022-12-28T01:18:46;5.23;;;2.30;;
26040;SDS011;13816;53.628;9.950;2022-12-28T01:21:16;7.33;;;2.83;;
26040;SDS011;13816;53.628;9.950;2022-12-28T01:23:44;7.10;;;2.37;;
26040;SDS011;13816;53.628;9.950;2022-12-28T01:26:10;8.93;;;3.00;;
26040;SDS011;13816;53.628;9.950;2022-12-28T01:28:37;5.67;;;2.37;;
26040;SDS011;13816;53.628;9.950;2022-12-28T01:31:04;3.90;;;2.27;;
26040;SDS011;13816;53.628;9.950;2022-12-28T01:33:30;10.33;;;2.57;;
26040;SDS011;13816;53.628;9.950;2022-12-28T01:35:57;5.20;;;2.40;;
26040;SDS011;13816;53.628;9.950;2022-12-28T01:38:23;9.00;;;2.00;;
26040;SDS011;13816;53.628;9.950;2022-12-28T01:40:49;8.67;;;2.60;;
26040;SDS011;13816;53.628;9.950;2022-12-28T01:43:16;2.57;;;1.80;;
26040;SDS011;13816;53.628;9.950;2022-12-28T01:45:43;7.33;;;2.50;;
26040;SDS011;13816;53.628;9.950;2022-12-28T01:48:18;5.47;;;2.13;;
26040;SDS011;13816;53.628;9.950;2022-12-28T01:50:45;8.90;;;2.57;;
26040;SDS011;13816;53.628;9.950;2022-12-28T01:53:13;4.23;;;2.10;;
26040;SDS011;13816;53.628;9.950;2022-12-28T01:55:40;2.80;;;1.70;;
26040;SDS011;13816;53.628;9.950;2022-12-28T01:58:09;3.73;;;1.90;;
26040;SDS011;13816;53.628;9.950;2022-12-28T02:00:38;8.23;;;1.97;;
26040;SDS011;13816;53.628;9.950;2022-12-28T02:03:15;11.87;;;2.60;;
26040;SDS011;13816;53.628;9.950;2022-12-28T02:05:45;6.93;;;2.10;;
26040;SDS011;13816;53.628;9.950;2022-12-28T02:10:39;4.40;;;1.97;;
26040;SDS011;13816;53.628;9.950;2022-12-28T02:13:06;7.23;;;2.60;;
26040;SDS011;13816;53.628;9.950;2022-12-28T02:15:33;8.07;;;2.43;;
26040;SDS011;13816;53.628;9.950;2022-12-28T02:17:59;9.67;;;2.03;;
26040;SDS011;13816;53.628;9.950;2022-12-28T02:23:27;4.93;;;1.80;;
26040;SDS011;13816;53.628;9.950;2022-12-28T02:31:16;6.53;;;2.80;;
26040;SDS011;13816;53.628;9.950;2022-12-28T02:33:47;4.03;;;2.07;;
26040;SDS011;13816;53.628;9.950;2022-12-28T02:36:16;8.73;;;2.27;;
26040;SDS011;13816;53.628;9.950;2022-12-28T02:38:44;6.10;;;2.40;;
26040;SDS011;13816;53.628;9.950;2022-12-28T02:41:15;6.47;;;2.20;;
26040;SDS011;13816;53.628;9.950;2022-12-28T02:43:42;5.93;;;2.37;;
26040;SDS011;13816;53.628;9.950;2022-12-28T02:46:10;10.00;;;2.30;;
26040;SDS011;13816;53.628;9.950;2022-12-28T02:48:56;5.80;;;3.13;;
26040;SDS011;13816;53.628;9.950;2022-12-28T03:00:31;3.60;;;2.40;;
26040;SDS011;13816;53.628;9.950;2022-12-28T03:03:19;13.43;;;2.53;;
26040;SDS011;13816;53.628;9.950;2022-12-28T03:05:52;9.40;;;2.53;;
26040;SDS011;13816;53.628;9.950;2022-12-28T03:08:54;9.60;;;2.40;;
26040;SDS011;13816;53.628;9.950;2022-12-28T03:11:29;5.37;;;2.43;;
26040;SDS011;13816;53.628;9.950;2022-12-28T03:14:04;11.47;;;2.70;;
26040;SDS011;13816;53.628;9.950;2022-12-28T03:16:33;5.90;;;2.13;;
26040;SDS011;13816;53.628;9.950;2022-12-28T03:19:26;4.87;;;2.30;;
26040;SDS011;13816;53.628;9.950;2022-12-28T03:22:16;8.60;;;2.73;;
26040;SDS011;13816;53.628;9.950;2022-12-28T03:25:07;6.10;;;2.40;;
26040;SDS011;13816;53.628;9.950;2022-12-28T03:28:07;5.50;;;2.00;;
26040;SDS011;13816;53.628;9.950;2022-12-28T03:31:16;8.30;;;2.27;;
26040;SDS011;13816;53.628;9.950;2022-12-28T03:33:51;3.80;;;2.37;;
26040;SDS011;13816;53.628;9.950;2022-12-28T03:41:23;9.07;;;2.80;;
26040;SDS011;13816;53.628;9.950;2022-12-28T03:43:59;6.10;;;2.57;;
26040;SDS011;13816;53.628;9.950;2022-12-28T03:46:32;9.83;;;2.30;;
26040;SDS011;13816;53.628;9.950;2022-12-28T03:48:59;5.30;;;2.90;;
26040;SDS011;13816;53.628;9.950;2022-12-28T03:51:27;4.93;;;2.23;;
26040;SDS011;13816;53.628;9.950;2022-12-28T03:53:58;6.60;;;2.60;;
26040;SDS011;13816;53.628;9.950;2022-12-28T03:56:25;7.93;;;3.13;;
26040;SDS011;13816;53.628;9.950;2022-12-28T03:58:54;7.80;;;3.03;;
26040;SDS011;13816;53.628;9.950;2022-12-28T04:01:24;5.60;;;3.23;;
26040;SDS011;13816;53.628;9.950;2022-12-28T04:03:50;6.50;;;2.80;;
26040;SDS011;13816;53.628;9.950;2022-12-28T04:06:17;10.93;;;2.50;;
26040;SDS011;13816;53.628;9.950;2022-12-28T04:08:44;5.07;;;2.50;;
26040;SDS011;13816;53.628;9.950;2022-12-28T04:11:11;9.87;;;2.90;;
26040;SDS011;13816;53.628;9.950;2022-12-28T04:13:40;4.87;;;2.30;;
26040;SDS011;13816;53.628;9.950;2022-12-28T04:16:14;10.33;;;3.20;;
26040;SDS011;13816;53.628;9.950;2022-12-28T04:18:42;5.43;;;2.67;;
26040;SDS011;13816;53.628;9.950;2022-12-28T04:21:12;5.70;;;2.80;;
26040;SDS011;13816;53.628;9.950;2022-12-28T04:23:40;4.60;;;2.60;;
26040;SDS011;13816;53.628;9.950;2022-12-28T04:26:20;6.50;;;3.43;;
26040;SDS011;13816;53.628;9.950;2022-12-28T04:28:49;7.40;;;2.93;;
26040;SDS011;13816;53.628;9.950;2022-12-28T04:31:34;10.33;;;3.00;;
26040;SDS011;13816;53.628;9.950;2022-12-28T04:34:08;10.23;;;3.30;;
26040;SDS011;13816;53.628;9.950;2022-12-28T04:36:38;7.70;;;3.00;;
26040;SDS011;13816;53.628;9.950;2022-12-28T04:39:10;8.27;;;3.20;;
26040;SDS011;13816;53.628;9.950;2022-12-28T04:41:36;4.63;;;2.50;;
26040;SDS011;13816;53.628;9.950;2022-12-28T04:44:04;9.33;;;3.40;;
26040;SDS011;13816;53.628;9.950;2022-12-28T04:46:30;9.90;;;3.73;;
26040;SDS011;13816;53.628;9.950;2022-12-28T04:48:56;3.60;;;2.50;;
26040;SDS011;13816;53.628;9.950;2022-12-28T04:51:24;9.67;;;2.83;;
26040;SDS011;13816;53.628;9.950;2022-12-28T04:53:50;3.10;;;2.30;;
26040;SDS011;13816;53.628;9.950;2022-12-28T04:56:17;4.17;;;2.00;;
26040;SDS011;13816;53.628;9.950;2022-12-28T04:58:43;7.63;;;2.63;;
26040;SDS011;13816;53.628;9.950;2022-12-28T05:01:11;7.17;;;3.30;;
26040;SDS011;13816;53.628;9.950;2022-12-28T05:03:39;4.23;;;2.50;;
26040;SDS011;13816;53.628;9.950;2022-12-28T05:06:06;7.50;;;2.70;;
26040;SDS011;13816;53.628;9.950;2022-12-28T05:08:33;8.63;;;2.40;;
26040;SDS011;13816;53.628;9.950;2022-12-28T05:11:01;6.67;;;2.60;;
26040;SDS011;13816;53.628;9.950;2022-12-28T05:13:28;5.80;;;2.63;;
26040;SDS011;13816;53.628;9.950;2022-12-28T05:15:59;4.70;;;3.33;;
26040;SDS011;13816;53.628;9.950;2022-12-28T05:18:26;7.60;;;3.33;;
26040;SDS011;13816;53.628;9.950;2022-12-28T05:21:26;5.93;;;3.23;;
26040;SDS011;13816;53.628;9.950;2022-12-28T05:23:45;9.87;;;3.50;;
26040;SDS011;13816;53.628;9.950;2022-12-28T05:26:12;6.00;;;3.33;;
26040;SDS011;13816;53.628;9.950;2022-12-28T05:28:39;4.90;;;3.20;;
26040;SDS011;13816;53.628;9.950;2022-12-28T05:31:07;11.47;;;3.50;;
26040;SDS011;13816;53.628;9.950;2022-12-28T05:33:36;6.20;;;3.03;;
26040;SDS011;13816;53.628;9.950;2022-12-28T05:36:05;8.20;;;3.27;;
26040;SDS011;13816;53.628;9.950;2022-12-28T05:38:31;6.07;;;3.30;;
26040;SDS011;13816;53.628;9.950;2022-12-28T05:41:14;7.80;;;3.27;;
26040;SDS011;13816;53.628;9.950;2022-12-28T05:44:19;4.50;;;2.77;;
26040;SDS011;13816;53.628;9.950;2022-12-28T05:46:45;5.67;;;3.03;;
26040;SDS011;13816;53.628;9.950;2022-12-28T05:49:12;7.50;;;3.67;;
26040;SDS011;13816;53.628;9.950;2022-12-28T05:51:38;5.63;;;2.90;;
26040;SDS011;13816;53.628;9.950;2022-12-28T05:54:04;7.23;;;2.33;;
26040;SDS011;13816;53.628;9.950;2022-12-28T05:56:30;5.63;;;2.80;;
26040;SDS011;13816;53.628;9.950;2022-12-28T05:58:58;3.50;;;2.40;;
26040;SDS011;13816;53.628;9.950;2022-12-28T06:01:26;6.10;;;3.20;;
26040;SDS011;13816;53.628;9.950;2022-12-28T06:03:54;5.30;;;2.50;;
26040;SDS011;13816;53.628;9.950;2022-12-28T06:06:20;4.80;;;2.60;;
26040;SDS011;13816;53.628;9.950;2022-12-28T06:08:47;2.87;;;2.43;;
26040;SDS011;13816;53.628;9.950;2022-12-28T06:11:14;5.83;;;2.57;;
26040;SDS011;13816;53.628;9.950;2022-12-28T06:13:41;5.47;;;2.30;;
26040;SDS011;13816;53.628;9.950;2022-12-28T06:16:08;4.40;;;2.40;;
26040;SDS011;13816;53.628;9.950;2022-12-28T06:18:35;3.53;;;2.60;;
26040;SDS011;13816;53.628;9.950;2022-12-28T06:21:02;5.03;;;2.77;;
26040;SDS011;13816;53.628;9.950;2022-12-28T06:23:28;3.50;;;2.47;;
26040;SDS011;13816;53.628;9.950;2022-12-28T06:25:56;4.00;;;2.40;;
26040;SDS011;13816;53.628;9.950;2022-12-28T06:28:22;3.10;;;2.03;;
26040;SDS011;13816;53.628;9.950;2022-12-28T06:30:48;5.77;;;2.80;;
26040;SDS011;13816;53.628;9.950;2022-12-28T06:33:14;4.03;;;2.10;;
26040;SDS011;13816;53.628;9.950;2022-12-28T06:35:41;3.27;;;2.53;;
26040;SDS011;13816;53.628;9.950;2022-12-28T06:38:08;5.00;;;2.67;;
26040;SDS011;13816;53.628;9.950;2022-12-28T06:40:34;4.13;;;2.57;;
26040;SDS011;13816;53.628;9.950;2022-12-28T06:43:00;5.00;;;2.10;;
26040;SDS011;13816;53.628;9.950;2022-12-28T06:45:28;4.07;;;2.10;;
26040;SDS011;13816;53.628;9.950;2022-12-28T06:47:56;4.37;;;2.60;;
26040;SDS011;13816;53.628;9.950;2022-12-28T06:50:23;4.50;;;3.40;;
26040;SDS011;13816;53.628;9.950;2022-12-28T06:52:58;3.50;;;2.47;;
26040;SDS011;13816;53.628;9.950;2022-12-28T06:55:52;3.10;;;2.80;;
26040;SDS011;13816;53.628;9.950;2022-12-28T06:58:18;5.17;;;2.37;;
26040;SDS011;13816;53.628;9.950;2022-12-28T07:00:44;2.77;;;2.57;;
26040;SDS011;13816;53.628;9.950;2022-12-28T07:03:11;4.77;;;3.33;;
26040;SDS011;13816;53.628;9.950;2022-12-28T07:05:37;3.17;;;2.87;;
26040;SDS011;13816;53.628;9.950;2022-12-28T07:08:03;3.23;;;2.93;;
26040;SDS011;13816;53.628;9.950;2022-12-28T07:10:29;6.40;;;3.60;;
26040;SDS011;13816;53.628;9.950;2022-12-28T07:12:55;3.63;;;2.60;;
26040;SDS011;13816;53.628;9.950;2022-12-28T07:15:21;4.57;;;2.90;;
26040;SDS011;13816;53.628;9.950;2022-12-28T07:17:47;3.43;;;2.70;;
26040;SDS011;13816;53.628;9.950;2022-12-28T07:20:13;3.17;;;2.60;;
26040;SDS011;13816;53.628;9.950;2022-12-28T07:22:39;4.60;;;3.37;;
26040;SDS011;13816;53.628;9.950;2022-12-28T07:25:05;3.07;;;2.87;;
26040;SDS011;13816;53.628;9.950;2022-12-28T07:27:33;2.90;;;2.70;;
26040;SDS011;13816;53.628;9.950;2022-12-28T07:29:59;3.30;;;3.00;;
26040;SDS011;13816;53.628;9.950;2022-12-28T07:32:25;2.87;;;2.67;;
26040;SDS011;13816;53.628;9.950;2022-12-28T07:34:51;3.60;;;3.17;;
26040;SDS011;13816;53.628;9.950;2022-12-28T07:37:18;3.87;;;3.07;;
26040;SDS011;13816;53.628;9.950;2022-12-28T07:39:44;3.80;;;3.27;;
26040;SDS011;13816;53.628;9.950;2022-12-28T07:42:10;3.53;;;3.23;;
26040;SDS011;13816;53.628;9.950;2022-12-28T07:44:36;3.40;;;3.10;;
26040;SDS011;13816;53.628;9.950;2022-12-28T07:47:06;5.37;;;3.30;;
26040;SDS011;13816;53.628;9.950;2022-12-28T07:49:33;4.83;;;2.50;;
26040;SDS011;13816;53.628;9.950;2022-12-28T07:51:59;5.03;;;3.10;;
26040;SDS011;13816;53.628;9.950;2022-12-28T07:54:25;5.13;;;3.10;;
26040;SDS011;13816;53.628;9.950;2022-12-28T07:56:51;4.80;;;3.00;;
26040;SDS011;13816;53.628;9.950;2022-12-28T07:59:17;4.00;;;3.70;;
26040;SDS011;13816;53.628;9.950;2022-12-28T08:01:45;3.50;;;3.20;;
26040;SDS011;13816;53.628;9.950;2022-12-28T08:04:14;7.70;;;3.10;;
26040;SDS011;13816;53.628;9.950;2022-12-28T08:06:41;6.57;;;3.33;;
26040;SDS011;13816;53.628;9.950;2022-12-28T08:09:08;3.07;;;2.80;;
26040;SDS011;13816;53.628;9.950;2022-12-28T08:11:35;5.23;;;3.20;;
26040;SDS011;13816;53.628;9.950;2022-12-28T08:14:02;4.80;;;3.20;;
26040;SDS011;13816;53.628;9.950;2022-12-28T08:16:30;3.47;;;3.17;;
26040;SDS011;13816;53.628;9.950;2022-12-28T08:18:56;3.57;;;3.27;;
26040;SDS011;13816;53.628;9.950;2022-12-28T08:21:31;3.67;;;3.10;;
26040;SDS011;13816;53.628;9.950;2022-12-28T08:23:58;5.53;;;3.47;;
26040;SDS011;13816;53.628;9.950;2022-12-28T08:26:31;3.43;;;3.13;;
26040;SDS011;13816;53.628;9.950;2022-12-28T08:28:59;4.17;;;3.83;;
26040;SDS011;13816;53.628;9.950;2022-12-28T08:31:27;3.60;;;3.30;;
26040;SDS011;13816;53.628;9.950;2022-12-28T08:33:55;3.87;;;3.50;;
26040;SDS011;13816;53.628;9.950;2022-12-28T08:36:21;4.40;;;4.00;;
26040;SDS011;13816;53.628;9.950;2022-12-28T08:38:47;5.50;;;4.23;;
26040;SDS011;13816;53.628;9.950;2022-12-28T08:41:15;4.00;;;3.70;;
26040;SDS011;13816;53.628;9.950;2022-12-28T08:43:42;4.77;;;4.33;;
26040;SDS011;13816;53.628;9.950;2022-12-28T08:48:37;4.00;;;3.70;;
26040;SDS011;13816;53.628;9.950;2022-12-28T08:53:30;5.27;;;4.80;;
26040;SDS011;13816;53.628;9.950;2022-12-28T08:56:03;5.43;;;4.97;;
26040;SDS011;13816;53.628;9.950;2022-12-28T08:58:30;5.60;;;5.10;;
26040;SDS011;13816;53.628;9.950;2022-12-28T09:00:56;5.67;;;5.10;;
26040;SDS011;13816;53.628;9.950;2022-12-28T09:03:28;6.13;;;5.53;;
26040;SDS011;13816;53.628;9.950;2022-12-28T09:05:55;6.50;;;5.77;;
26040;SDS011;13816;53.628;9.950;2022-12-28T09:08:21;6.90;;;6.20;;
26040;SDS011;13816;53.628;9.950;2022-12-28T09:10:47;6.53;;;5.93;;
26040;SDS011;13816;53.628;9.950;2022-12-28T09:13:13;6.63;;;5.97;;
26040;SDS011;13816;53.628;9.950;2022-12-28T09:15:40;6.43;;;5.90;;
26040;SDS011;13816;53.628;9.950;2022-12-28T09:18:06;7.10;;;6.40;;
26040;SDS011;13816;53.628;9.950;2022-12-28T09:20:33;7.60;;;6.80;;
26040;SDS011;13816;53.628;9.950;2022-12-28T09:23:00;7.70;;;7.00;;
26040;SDS011;13816;53.628;9.950;2022-12-28T09:25:26;6.80;;;6.10;;
26040;SDS011;13816;53.628;9.950;2022-12-28T09:27:52;8.03;;;7.23;;
26040;SDS011;13816;53.628;9.950;2022-12-28T09:30:18;14.30;;;8.27;;
26040;SDS011;13816;53.628;9.950;2022-12-28T09:32:44;9.37;;;8.37;;
26040;SDS011;13816;53.628;9.950;2022-12-28T09:35:30;9.03;;;8.07;;
26040;SDS011;13816;53.628;9.950;2022-12-28T09:37:56;10.07;;;9.00;;
26040;SDS011;13816;53.628;9.950;2022-12-28T09:40:22;8.60;;;7.80;;
26040;SDS011;13816;53.628;9.950;2022-12-28T09:42:49;9.60;;;8.60;;
26040;SDS011;13816;53.628;9.950;2022-12-28T09:45:16;11.03;;;8.50;;
26040;SDS011;13816;53.628;9.950;2022-12-28T09:47:50;12.83;;;9.37;;
26040;SDS011;13816;53.628;9.950;2022-12-28T09:50:31;8.77;;;7.97;;
26040;SDS011;13816;53.628;9.950;2022-12-28T09:55:27;8.00;;;7.20;;
26040;SDS011;13816;53.628;9.950;2022-12-28T09:57:54;9.07;;;8.20;;
26040;SDS011;13816;53.628;9.950;2022-12-28T10:00:25;9.40;;;8.50;;
26040;SDS011;13816;53.628;9.950;2022-12-28T10:02:54;8.97;;;8.17;;
26040;SDS011;13816;53.628;9.950;2022-12-28T10:05:22;10.20;;;8.53;;
26040;SDS011;13816;53.628;9.950;2022-12-28T10:07:48;8.70;;;7.90;;
26040;SDS011;13816;53.628;9.950;2022-12-28T10:10:16;8.00;;;7.30;;
26040;SDS011;13816;53.628;9.950;2022-12-28T10:12:44;9.83;;;6.97;;
26040;SDS011;13816;53.628;9.950;2022-12-28T10:15:11;8.53;;;7.70;;
26040;SDS011;13816;53.628;9.950;2022-12-28T10:17:38;8.70;;;7.87;;
26040;SDS011;13816;53.628;9.950;2022-12-28T10:20:04;8.67;;;7.87;;
26040;SDS011;13816;53.628;9.950;2022-12-28T10:22:37;8.60;;;7.80;;
26040;SDS011;13816;53.628;9.950;2022-12-28T10:25:15;9.10;;;7.80;;
26040;SDS011;13816;53.628;9.950;2022-12-28T10:27:41;10.00;;;7.90;;
26040;SDS011;13816;53.628;9.950;2022-12-28T10:33:00;9.37;;;7.70;;
26040;SDS011;13816;53.628;9.950;2022-12-28T10:35:28;7.70;;;7.00;;
26040;SDS011;13816;53.628;9.950;2022-12-28T10:37:59;7.63;;;6.83;;
26040;SDS011;13816;53.628;9.950;2022-12-28T10:40:27;7.87;;;7.07;;
26040;SDS011;13816;53.628;9.950;2022-12-28T10:42:54;7.80;;;7.00;;
26040;SDS011;13816;53.628;9.950;2022-12-28T10:45:26;7.90;;;7.10;;
26040;SDS011;13816;53.628;9.950;2022-12-28T10:47:56;7.43;;;6.73;;
26040;SDS011;13816;53.628;9.950;2022-12-28T10:50:36;11.97;;;7.00;;
26040;SDS011;13816;53.628;9.950;2022-12-28T10:53:04;8.00;;;7.20;;
26040;SDS011;13816;53.628;9.950;2022-12-28T10:55:31;8.87;;;7.97;;
26040;SDS011;13816;53.628;9.950;2022-12-28T10:58:14;8.47;;;7.63;;
26040;SDS011;13816;53.628;9.950;2022-12-28T11:00:40;8.47;;;7.57;;
26040;SDS011;13816;53.628;9.950;2022-12-28T11:03:16;7.87;;;7.07;;
26040;SDS011;13816;53.628;9.950;2022-12-28T11:05:42;7.60;;;6.80;;
26040;SDS011;13816;53.628;9.950;2022-12-28T11:08:09;10.73;;;7.77;;
26040;SDS011;13816;53.628;9.950;2022-12-28T11:10:37;8.10;;;7.40;;
26040;SDS011;13816;53.628;9.950;2022-12-28T11:13:05;8.20;;;7.50;;
26040;SDS011;13816;53.628;9.950;2022-12-28T11:15:34;8.73;;;7.93;;
26040;SDS011;13816;53.628;9.950;2022-12-28T11:18:13;8.40;;;7.03;;
26040;SDS011;13816;53.628;9.950;2022-12-28T11:20:41;7.90;;;7.10;;
26040;SDS011;13816;53.628;9.950;2022-12-28T11:23:07;7.53;;;6.83;;
26040;SDS011;13816;53.628;9.950;2022-12-28T11:25:34;7.83;;;6.57;;
26040;SDS011;13816;53.628;9.950;2022-12-28T11:28:04;8.13;;;7.07;;
26040;SDS011;13816;53.628;9.950;2022-12-28T11:30:31;6.20;;;5.70;;
26040;SDS011;13816;53.628;9.950;2022-12-28T11:32:57;8.90;;;7.07;;
26040;SDS011;13816;53.628;9.950;2022-12-28T11:35:28;6.77;;;6.07;;
26040;SDS011;13816;53.628;9.950;2022-12-28T11:37:55;7.53;;;6.70;;
26040;SDS011;13816;53.628;9.950;2022-12-28T11:43:26;6.07;;;5.57;;
26040;SDS011;13816;53.628;9.950;2022-12-28T11:48:43;6.63;;;5.93;;
26040;SDS011;13816;53.628;9.950;2022-12-28T11:51:27;6.17;;;5.60;;
26040;SDS011;13816;53.628;9.950;2022-12-28T11:54:00;5.90;;;5.07;;
26040;SDS011;13816;53.628;9.950;2022-12-28T12:01:47;6.63;;;4.73;;
26040;SDS011;13816;53.628;9.950;2022-12-28T12:04:18;5.53;;;5.00;;
26040;SDS011;13816;53.628;9.950;2022-12-28T12:11:54;4.90;;;4.50;;
26040;SDS011;13816;53.628;9.950;2022-12-28T12:14:25;5.47;;;3.83;;
26040;SDS011;13816;53.628;9.950;2022-12-28T12:16:55;5.53;;;4.83;;
26040;SDS011;13816;53.628;9.950;2022-12-28T12:19:36;5.10;;;4.50;;
26040;SDS011;13816;53.628;9.950;2022-12-28T12:22:29;4.53;;;4.13;;
26040;SDS011;13816;53.628;9.950;2022-12-28T12:25:13;5.43;;;4.93;;
26040;SDS011;13816;53.628;9.950;2022-12-28T12:30:32;4.97;;;4.57;;
26040;SDS011;13816;53.628;9.950;2022-12-28T12:33:11;4.83;;;4.43;;
26040;SDS011;13816;53.628;9.950;2022-12-28T12:35:45;5.83;;;5.33;;
26040;SDS011;13816;53.628;9.950;2022-12-28T12:38:30;4.40;;;4.00;;
26040;SDS011;13816;53.628;9.950;2022-12-28T12:46:40;5.77;;;4.60;;
26040;SDS011;13816;53.628;9.950;2022-12-28T12:57:17;4.43;;;4.03;;
26040;SDS011;13816;53.628;9.950;2022-12-28T13:02:26;5.10;;;4.60;;
26040;SDS011;13816;53.628;9.950;2022-12-28T13:04:55;4.93;;;4.53;;
26040;SDS011;13816;53.628;9.950;2022-12-28T13:07:23;4.60;;;4.20;;
26040;SDS011;13816;53.628;9.950;2022-12-28T13:09:50;5.50;;;4.60;;
26040;SDS011;13816;53.628;9.950;2022-12-28T13:12:18;6.50;;;4.67;;
26040;SDS011;13816;53.628;9.950;2022-12-28T13:14:48;5.20;;;4.40;;
26040;SDS011;13816;53.628;9.950;2022-12-28T13:17:18;5.70;;;5.10;;
26040;SDS011;13816;53.628;9.950;2022-12-28T13:19:45;5.90;;;5.30;;
26040;SDS011;13816;53.628;9.950;2022-12-28T13:22:27;5.67;;;5.07;;
26040;SDS011;13816;53.628;9.950;2022-12-28T13:24:54;6.20;;;5.60;;
26040;SDS011;13816;53.628;9.950;2022-12-28T13:27:20;5.80;;;5.10;;
26040;SDS011;13816;53.628;9.950;2022-12-28T13:29:50;5.40;;;4.90;;
26040;SDS011;13816;53.628;9.950;2022-12-28T13:32:27;5.70;;;5.20;;
26040;SDS011;13816;53.628;9.950;2022-12-28T13:34:54;5.93;;;5.43;;
26040;SDS011;13816;53.628;9.950;2022-12-28T13:37:20;6.07;;;5.47;;
26040;SDS011;13816;53.628;9.950;2022-12-28T13:39:49;9.33;;;5.60;;
26040;SDS011;13816;53.628;9.950;2022-12-28T13:42:16;8.83;;;6.80;;
26040;SDS011;13816;53.628;9.950;2022-12-28T13:49:46;6.27;;;5.60;;
26040;SDS011;13816;53.628;9.950;2022-12-28T13:52:27;6.77;;;6.13;;
26040;SDS011;13816;53.628;9.950;2022-12-28T13:54:56;8.53;;;6.27;;
26040;SDS011;13816;53.628;9.950;2022-12-28T13:57:24;6.53;;;5.90;;
26040;SDS011;13816;53.628;9.950;2022-12-28T13:59:51;5.87;;;5.30;;
26040;SDS011;13816;53.628;9.950;2022-12-28T14:02:22;5.63;;;5.13;;
26040;SDS011;13816;53.628;9.950;2022-12-28T14:04:49;10.50;;;5.50;;
26040;SDS011;13816;53.628;9.950;2022-12-28T14:07:16;5.67;;;5.17;;
26040;SDS011;13816;53.628;9.950;2022-12-28T14:09:46;7.00;;;6.10;;
26040;SDS011;13816;53.628;9.950;2022-12-28T14:12:14;5.57;;;5.07;;
26040;SDS011;13816;53.628;9.950;2022-12-28T14:14:40;5.70;;;5.20;;
26040;SDS011;13816;53.628;9.950;2022-12-28T14:17:07;6.10;;;5.50;;
26040;SDS011;13816;53.628;9.950;2022-12-28T14:19:33;6.53;;;5.90;;
26040;SDS011;13816;53.628;9.950;2022-12-28T14:22:00;7.20;;;5.57;;
26040;SDS011;13816;53.628;9.950;2022-12-28T14:24:26;7.53;;;5.67;;
26040;SDS011;13816;53.628;9.950;2022-12-28T14:26:53;6.37;;;4.90;;
26040;SDS011;13816;53.628;9.950;2022-12-28T14:31:56;5.10;;;4.70;;
26040;SDS011;13816;53.628;9.950;2022-12-28T14:34:25;5.60;;;5.10;;
26040;SDS011;13816;53.628;9.950;2022-12-28T14:36:52;5.20;;;4.70;;
26040;SDS011;13816;53.628;9.950;2022-12-28T14:39:24;5.37;;;4.87;;
26040;SDS011;13816;53.628;9.950;2022-12-28T14:41:51;5.23;;;4.00;;
26040;SDS011;13816;53.628;9.950;2022-12-28T14:44:31;5.47;;;4.97;;
26040;SDS011;13816;53.628;9.950;2022-12-28T14:46:58;4.53;;;4.13;;
26040;SDS011;13816;53.628;9.950;2022-12-28T14:51:55;4.50;;;4.10;;
26040;SDS011;13816;53.628;9.950;2022-12-28T14:54:22;4.70;;;4.30;;
26040;SDS011;13816;53.628;9.950;2022-12-28T14:57:04;6.03;;;4.47;;
26040;SDS011;13816;53.628;9.950;2022-12-28T14:59:41;4.50;;;4.10;;
26040;SDS011;13816;53.628;9.950;2022-12-28T15:02:30;5.13;;;4.63;;
26040;SDS011;13816;53.628;9.950;2022-12-28T15:04:55;5.17;;;4.67;;
26040;SDS011;13816;53.628;9.950;2022-12-28T15:07:21;5.10;;;4.60;;
26040;SDS011;13816;53.628;9.950;2022-12-28T15:09:47;4.83;;;4.33;;
26040;SDS011;13816;53.628;9.950;2022-12-28T15:12:16;4.70;;;4.20;;
26040;SDS011;13816;53.628;9.950;2022-12-28T15:14:50;4.47;;;4.07;;
26040;SDS011;13816;53.628;9.950;2022-12-28T15:17:16;4.97;;;4.40;;
26040;SDS011;13816;53.628;9.950;2022-12-28T15:19:43;4.20;;;3.80;;
26040;SDS011;13816;53.628;9.950;2022-12-28T15:22:10;4.60;;;4.20;;
26040;SDS011;13816;53.628;9.950;2022-12-28T15:24:36;4.83;;;4.33;;
26040;SDS011;13816;53.628;9.950;2022-12-28T15:27:03;6.00;;;4.27;;
26040;SDS011;13816;53.628;9.950;2022-12-28T15:29:30;4.60;;;4.10;;
26040;SDS011;13816;53.628;9.950;2022-12-28T15:31:56;5.17;;;4.67;;
26040;SDS011;13816;53.628;9.950;2022-12-28T15:34:22;5.20;;;4.20;;
26040;SDS011;13816;53.628;9.950;2022-12-28T15:36:48;4.80;;;4.40;;
26040;SDS011;13816;53.628;9.950;2022-12-28T15:39:16;4.77;;;4.37;;
26040;SDS011;13816;53.628;9.950;2022-12-28T15:41:42;4.87;;;4.37;;
26040;SDS011;13816;53.628;9.950;2022-12-28T15:44:11;4.47;;;4.07;;
26040;SDS011;13816;53.628;9.950;2022-12-28T15:46:37;6.40;;;3.70;;
26040;SDS011;13816;53.628;9.950;2022-12-28T15:49:04;7.30;;;4.83;;
26040;SDS011;13816;53.628;9.950;2022-12-28T15:51:30;4.23;;;3.83;;
26040;SDS011;13816;53.628;9.950;2022-12-28T15:53:56;4.50;;;4.10;;
26040;SDS011;13816;53.628;9.950;2022-12-28T15:56:24;6.60;;;3.70;;
26040;SDS011;13816;53.628;9.950;2022-12-28T15:58:54;4.33;;;3.93;;
26040;SDS011;13816;53.628;9.950;2022-12-28T16:01:20;5.43;;;4.97;;
26040;SDS011;13816;53.628;9.950;2022-12-28T16:03:47;4.30;;;3.90;;
26040;SDS011;13816;53.628;9.950;2022-12-28T16:06:15;5.67;;;4.87;;
26040;SDS011;13816;53.628;9.950;2022-12-28T16:08:41;4.97;;;4.47;;
26040;SDS011;13816;53.628;9.950;2022-12-28T16:11:08;6.70;;;5.32;;
26040;SDS011;13816;53.628;9.950;2022-12-28T16:13:34;5.50;;;4.40;;
26040;SDS011;13816;53.628;9.950;2022-12-28T16:16:08;7.37;;;5.03;;
26040;SDS011;13816;53.628;9.950;2022-12-28T16:18:34;5.13;;;4.63;;